Valley View, Ohio
Current Conditions -  °F | °C
As of 1:53 AM on Thursday 27 Nov 2014 (Local Time) from KBKL Reporting Station
Light Snow Light Snow  
Wind Chill: 33°   Ceiling: 3300
Heat Index: 33°   Visibility: 3mi
Dew Point: 31°   Wind: 0mph
Humidity: 92%   Direction: NA
Pressure: 30.02"   Gusts: NA
Location:  41.3833°N, 81.6531°W
Report Text: KBKL 270653Z 00000KT 3SM -SN BR SCT015 OVC033 01/M01 A3002 RMK AO2 SNB22 SLP172 P0000 T00061006
Loading
Personal Weather Stations






























Interactive Weather Map New forecast layout! Learn more

10-Day Weather Forecast

Advertisements
Track Severe Weather on mobile